Etusivu
METAR-TAF:

METAR-TAF

Lentoasemat :

Podor, Senegal

Leveyspiiri: 16-39N, Pituuspiiri: 014-58W, korkeus merenpinnasta: 6 m

Tämänhetkinen sää

Tämä raportti tehtiin 1 tunti ja 9 minuuttia sitten, kello 00.00 UTC
Tuuli 6 kn luoteesta
Lämpötila 30°C
Kosteus 35%
Ilmanpaine 1012 hPa
Näkyvyys: 8000 m

METAR: GOSP 060000Z 32006KT 8000 NSC 30/13 Q1012

Aika: 01:09 (01:09 UTC)


TAF: puuttuu

Säähavainnot ja -ennusteet yli 4000 lentoasemalta (METAR- ja TAF-raportit).

Käytössä olevat sääasemat on merkitty karttaan keltaisilla ja punaisilla pisteillä.

Aseta hiiri pisteen päälle nähdäksesi sääaseman nimen.

Klikkaa sitten nähdäksesi säähavainnot ja -ennusteet.

Kartan vaihtaminen: klikkaa mustalla rastilla varustettuja vihreitä pisteitä, niin voit zoomata sisään; viivalla varustettua vihreää pistettä, niin voit zoomata ulos tai vihreitä nuolia, niin pääset viereisille kartoille.


METAR-TAF: